createdAt,value
2018-04-14T00:02:07.402Z,48.67
2018-04-14T00:04:34.997Z,46.37
2018-04-14T00:07:02.507Z,45.78
2018-04-14T00:09:30.059Z,47.03
2018-04-14T00:14:32.445Z,44.35
2018-04-14T00:17:00.775Z,46.78
2018-04-14T00:19:28.365Z,50.83
2018-04-14T00:21:55.910Z,46.95
2018-04-14T00:24:23.570Z,44.53
2018-04-14T00:26:51.171Z,45.58
2018-04-14T00:29:18.741Z,45.17
2018-04-14T00:31:46.300Z,47.65
2018-04-14T00:34:14.605Z,48.10
2018-04-14T00:36:42.137Z,44.80
2018-04-14T00:39:09.767Z,47.63
2018-04-14T00:41:38.863Z,46.65
2018-04-14T00:44:06.519Z,50.40
2018-04-14T00:46:34.884Z,45.08
2018-04-14T00:49:02.461Z,46.75
2018-04-14T00:51:30.105Z,46.33
2018-04-14T00:53:57.711Z,45.58
2018-04-14T00:56:26.081Z,46.05
2018-04-14T00:58:54.436Z,47.13
2018-04-14T01:01:21.990Z,46.42
2018-04-14T01:03:49.591Z,47.15
2018-04-14T01:06:17.921Z,46.92
2018-04-14T01:08:45.424Z,46.42
2018-04-14T01:11:12.932Z,51.47
2018-04-14T01:13:40.454Z,51.60
2018-04-14T01:16:08.062Z,49.97
2018-04-14T01:18:35.628Z,49.88
2018-04-14T01:21:03.118Z,49.05
2018-04-14T01:23:30.629Z,49.67
2018-04-14T01:25:59.016Z,53.15
2018-04-14T01:28:26.708Z,53.15
2018-04-14T01:30:55.134Z,52.67
2018-04-14T01:33:22.736Z,51.60
2018-04-14T01:35:50.341Z,53.92
2018-04-14T01:38:18.046Z,51.50
2018-04-14T01:40:45.670Z,55.05
2018-04-14T01:43:13.528Z,52.75
2018-04-14T01:45:41.025Z,49.80
2018-04-14T01:48:08.701Z,52.65
2018-04-14T01:50:36.423Z,56.53
2018-04-14T01:53:03.985Z,56.67
2018-04-14T01:55:31.683Z,56.08
2018-04-14T01:58:00.063Z,53.87
2018-04-14T02:00:27.690Z,54.95
2018-04-14T02:02:55.273Z,57.33
2018-04-14T02:05:23.203Z,57.95
2018-04-14T02:07:50.873Z,58.15
2018-04-14T02:10:18.437Z,57.53
2018-04-14T02:12:48.968Z,56.92
2018-04-14T02:15:16.555Z,58.72
2018-04-14T02:17:44.192Z,55.05
2018-04-14T02:20:11.705Z,57.62
2018-04-14T02:22:39.309Z,58.55
2018-04-14T02:25:06.870Z,57.35
2018-04-14T02:27:34.394Z,54.08
2018-04-14T02:30:03.351Z,52.88
2018-04-14T02:32:31.706Z,54.67
2018-04-14T02:34:59.708Z,53.65
2018-04-14T02:37:27.430Z,52.33
2018-04-14T02:39:55.098Z,53.00
2018-04-14T02:42:23.788Z,48.80
2018-04-14T02:44:51.497Z,51.03
2018-04-14T02:47:19.036Z,53.47
2018-04-14T02:49:47.488Z,52.70
2018-04-14T02:52:15.209Z,53.90
2018-04-14T02:54:43.485Z,51.00
2018-04-14T02:57:11.908Z,53.78
2018-04-14T02:59:40.353Z,50.55
2018-04-14T03:02:07.868Z,52.92
2018-04-14T03:04:35.438Z,50.67
2018-04-14T03:07:03.223Z,50.97
2018-04-14T03:09:30.697Z,53.55
2018-04-14T03:11:58.287Z,52.20
2018-04-14T03:14:26.079Z,52.85
2018-04-14T03:16:53.719Z,52.03
2018-04-14T03:19:21.478Z,50.28
2018-04-14T03:21:49.075Z,50.53
2018-04-14T03:24:17.554Z,44.72
2018-04-14T03:26:45.297Z,49.90
2018-04-14T03:29:12.972Z,49.97
2018-04-14T03:31:40.467Z,49.53
2018-04-14T03:34:08.075Z,50.97
2018-04-14T03:36:35.640Z,49.83
2018-04-14T03:39:04.211Z,50.15
2018-04-14T03:41:31.775Z,47.67
2018-04-14T03:43:59.361Z,47.05
2018-04-14T03:46:27.732Z,46.80
2018-04-14T03:48:55.525Z,48.42
2018-04-14T03:51:23.044Z,48.80
2018-04-14T03:53:50.704Z,50.22
2018-04-14T03:56:18.472Z,47.97
2018-04-14T03:58:46.109Z,48.22
2018-04-14T04:01:13.710Z,50.58
2018-04-14T04:03:41.434Z,51.97
2018-04-14T04:06:08.993Z,54.47
2018-04-14T04:08:36.504Z,51.70
2018-04-14T04:11:04.153Z,51.95
2018-04-14T04:13:31.916Z,52.60
2018-04-14T04:16:00.399Z,50.70
2018-04-14T04:18:42.081Z,50.20
2018-04-14T04:21:21.629Z,52.58
2018-04-14T04:24:01.644Z,50.38
2018-04-14T04:26:29.334Z,52.22
2018-04-14T04:28:56.977Z,53.35
2018-04-14T04:31:24.625Z,50.63
2018-04-14T04:33:54.018Z,51.72
2018-04-14T04:36:23.054Z,52.33
2018-04-14T04:38:54.000Z,49.72
2018-04-14T04:41:21.610Z,53.05
2018-04-14T04:43:50.937Z,51.37
2018-04-14T04:46:20.033Z,52.03
2018-04-14T04:48:47.882Z,48.60
2018-04-14T04:51:16.683Z,52.30
2018-04-14T04:53:46.901Z,49.97
2018-04-14T04:56:15.805Z,53.00
2018-04-14T04:58:44.521Z,51.17
2018-04-14T05:01:13.375Z,51.88
2018-04-14T05:03:42.774Z,51.05
2018-04-14T05:06:11.912Z,50.72
2018-04-14T05:08:40.053Z,51.78
2018-04-14T05:11:07.840Z,51.40
2018-04-14T05:13:35.547Z,55.53
2018-04-14T05:16:03.366Z,55.65
2018-04-14T05:18:31.037Z,55.78
2018-04-14T05:20:58.551Z,53.65
2018-04-14T05:23:26.867Z,53.95
2018-04-14T05:25:55.486Z,53.55
2018-04-14T05:28:23.155Z,52.13
2018-04-14T05:30:52.010Z,54.90
2018-04-14T05:33:19.756Z,55.15
2018-04-14T05:35:48.570Z,53.50
2018-04-14T05:38:16.265Z,51.22
2018-04-14T05:40:43.883Z,53.65
2018-04-14T05:43:11.650Z,55.95
2018-04-14T05:45:39.381Z,53.95
2018-04-14T05:48:06.959Z,53.90
2018-04-14T05:50:34.720Z,55.90
2018-04-14T05:53:02.404Z,53.22
2018-04-14T05:55:30.020Z,54.35
2018-04-14T05:57:57.712Z,56.33
2018-04-14T06:00:25.292Z,53.42
2018-04-14T06:02:53.595Z,57.85
2018-04-14T06:05:21.209Z,51.88
2018-04-14T06:07:48.970Z,52.13
2018-04-14T06:10:17.412Z,52.67
2018-04-14T06:12:44.978Z,55.90
2018-04-14T06:15:12.678Z,52.35
2018-04-14T06:17:40.258Z,52.62
2018-04-14T06:20:07.749Z,50.30
2018-04-14T06:22:35.391Z,53.70
2018-04-14T06:25:03.093Z,50.12
2018-04-14T06:27:30.762Z,48.90
2018-04-14T06:29:58.874Z,48.15
2018-04-14T06:32:26.456Z,51.75
2018-04-14T06:34:55.026Z,48.97
2018-04-14T06:37:22.561Z,50.00
2018-04-14T06:39:50.104Z,46.70
2018-04-14T06:42:17.806Z,49.20
2018-04-14T06:44:46.321Z,49.47
2018-04-14T06:47:14.045Z,47.72
2018-04-14T06:49:41.782Z,43.42
2018-04-14T06:52:09.444Z,48.17
2018-04-14T06:54:36.944Z,46.40
2018-04-14T06:57:06.129Z,47.47
2018-04-14T06:59:35.377Z,44.17
2018-04-14T07:02:03.884Z,44.67
2018-04-14T07:04:31.703Z,43.50
2018-04-14T07:06:59.718Z,44.00
2018-04-14T07:09:27.518Z,40.30
2018-04-14T07:11:55.178Z,43.05
2018-04-14T07:14:23.454Z,42.33
2018-04-14T07:16:51.130Z,40.55
2018-04-14T07:19:18.990Z,39.97
2018-04-14T07:21:46.809Z,36.65
2018-04-14T07:24:14.518Z,36.77
2018-04-14T07:26:42.147Z,36.08
2018-04-14T07:29:09.722Z,31.03
2018-04-14T07:31:38.071Z,32.53
2018-04-14T07:34:05.677Z,34.90
2018-04-14T07:36:33.291Z,37.40
2018-04-14T07:39:00.918Z,37.10
2018-04-14T07:41:28.591Z,37.63
2018-04-14T07:43:56.154Z,36.10
2018-04-14T07:46:23.965Z,34.10
2018-04-14T07:48:54.178Z,33.77
2018-04-14T07:51:22.647Z,36.33
2018-04-14T07:53:51.803Z,37.10
2018-04-14T07:56:19.530Z,34.50
2018-04-14T07:58:49.224Z,34.30
2018-04-14T08:01:18.351Z,37.23
2018-04-14T08:03:47.036Z,36.83
2018-04-14T08:06:14.751Z,38.17
2018-04-14T08:08:57.528Z,39.97
2018-04-14T08:11:31.009Z,36.83
2018-04-14T08:13:59.660Z,35.47
2018-04-14T08:16:37.500Z,36.90
2018-04-14T08:22:00.297Z,35.63
2018-04-14T08:24:28.845Z,39.63
2018-04-14T08:26:57.170Z,36.87
2018-04-14T08:29:24.822Z,35.73
2018-04-14T08:31:54.009Z,34.90
2018-04-14T08:34:24.253Z,33.57
2018-04-14T08:36:51.968Z,37.07
2018-04-14T08:39:20.287Z,35.67
2018-04-14T08:44:42.408Z,35.40
2018-04-14T08:47:13.688Z,36.00
2018-04-14T08:49:41.340Z,39.20
2018-04-14T08:52:09.660Z,38.00
2018-04-14T08:54:37.248Z,37.00
2018-04-14T08:57:04.947Z,37.10
2018-04-14T08:59:32.554Z,37.17
2018-04-14T09:02:00.183Z,34.97
2018-04-14T09:04:28.535Z,38.73
2018-04-14T09:06:56.403Z,36.50
2018-04-14T09:09:24.770Z,37.77
2018-04-14T09:11:52.359Z,35.80
2018-04-14T09:14:20.021Z,35.70
2018-04-14T09:16:47.602Z,36.10
2018-04-14T09:19:15.290Z,34.00
2018-04-14T09:21:43.741Z,36.37
2018-04-14T09:24:12.222Z,33.37
2018-04-14T09:26:39.830Z,36.30
2018-04-14T09:29:08.172Z,34.30
2018-04-14T09:31:38.596Z,34.80
2018-04-14T09:34:07.157Z,35.33
2018-04-14T09:36:35.378Z,35.93
2018-04-14T09:39:05.668Z,36.10
2018-04-14T09:41:34.172Z,34.40
2018-04-14T09:44:01.798Z,31.57
2018-04-14T09:46:29.382Z,33.83
2018-04-14T09:48:57.018Z,33.20
2018-04-14T09:51:24.583Z,33.00
2018-04-14T09:53:52.132Z,32.77
2018-04-14T09:56:19.818Z,33.83
2018-04-14T09:58:47.496Z,36.40
2018-04-14T10:01:20.716Z,35.47
2018-04-14T10:03:51.084Z,35.67
2018-04-14T10:06:18.810Z,36.10
2018-04-14T10:08:49.340Z,36.13
2018-04-14T10:11:20.679Z,34.90
2018-04-14T10:13:50.236Z,37.43
2018-04-14T10:16:18.996Z,37.20
2018-04-14T10:18:46.818Z,38.23
2018-04-14T10:21:14.314Z,38.03
2018-04-14T10:23:44.673Z,39.03
2018-04-14T10:26:12.396Z,38.40
2018-04-14T10:28:39.969Z,39.27
2018-04-14T10:31:08.481Z,37.97
2018-04-14T10:33:36.012Z,38.43
2018-04-14T10:36:03.602Z,35.60
2018-04-14T10:38:32.516Z,37.57
2018-04-14T10:41:00.316Z,37.27
2018-04-14T10:43:27.847Z,39.00
2018-04-14T10:45:55.878Z,38.20
2018-04-14T10:48:24.419Z,38.00
2018-04-14T10:50:52.352Z,39.33
2018-04-14T10:53:20.155Z,39.43
2018-04-14T10:55:48.478Z,36.03
2018-04-14T10:58:16.016Z,39.77
2018-04-14T11:00:43.982Z,39.00
2018-04-14T11:03:11.531Z,40.03
2018-04-14T11:05:40.174Z,40.53
2018-04-14T11:08:07.783Z,41.20
2018-04-14T11:10:36.282Z,38.10
2018-04-14T11:13:03.783Z,39.50
2018-04-14T11:15:31.688Z,37.53
2018-04-14T11:17:59.237Z,36.60
2018-04-14T11:20:27.572Z,37.97
2018-04-14T11:22:55.085Z,40.37
2018-04-14T11:25:22.584Z,39.53
2018-04-14T11:27:50.247Z,38.23
2018-04-14T11:30:18.052Z,37.07
2018-04-14T11:32:46.319Z,37.63
2018-04-14T11:35:13.860Z,35.37
2018-04-14T11:37:41.790Z,35.90
2018-04-14T11:40:09.375Z,32.10
2018-04-14T11:42:36.918Z,33.03
2018-04-14T11:47:40.466Z,34.40
2018-04-14T11:50:08.401Z,35.07
2018-04-14T11:52:36.947Z,33.73
2018-04-14T11:55:05.744Z,35.87
2018-04-14T11:57:33.493Z,38.57
2018-04-14T12:00:01.185Z,36.40
2018-04-14T12:02:28.768Z,36.83
2018-04-14T12:04:56.421Z,35.20
2018-04-14T12:07:25.706Z,35.93
2018-04-14T12:09:53.842Z,38.53
2018-04-14T12:12:22.279Z,35.40
2018-04-14T12:14:50.764Z,35.53
2018-04-14T12:17:18.532Z,38.27
2018-04-14T12:19:46.029Z,34.03
2018-04-14T12:22:13.726Z,37.50
2018-04-14T12:24:41.606Z,35.93
2018-04-14T12:27:09.140Z,35.63
2018-04-14T12:29:37.405Z,35.87
2018-04-14T12:32:05.863Z,37.07
2018-04-14T12:34:33.392Z,38.10
2018-04-14T12:37:02.377Z,36.30
2018-04-14T12:39:30.319Z,34.30
2018-04-14T12:41:58.988Z,35.97
2018-04-14T12:44:26.793Z,35.27
2018-04-14T12:46:56.033Z,31.97
2018-04-14T12:49:26.860Z,34.00
2018-04-14T12:51:58.800Z,33.37
2018-04-14T12:54:26.540Z,34.73
2018-04-14T12:56:54.503Z,33.77
2018-04-14T12:59:22.222Z,34.00
2018-04-14T13:01:49.765Z,35.73
2018-04-14T13:04:17.459Z,38.57
2018-04-14T13:06:54.285Z,38.30
2018-04-14T13:09:24.863Z,34.77
2018-04-14T13:11:53.503Z,37.90
2018-04-14T13:14:21.252Z,39.20
2018-04-14T13:16:49.012Z,36.83
2018-04-14T13:19:16.768Z,36.13
2018-04-14T13:21:45.095Z,33.90
2018-04-14T13:24:12.713Z,34.07
2018-04-14T13:26:41.301Z,33.57
2018-04-14T13:29:08.847Z,31.87
2018-04-14T13:31:37.165Z,35.43
2018-04-14T13:34:05.099Z,35.73
2018-04-14T13:36:33.418Z,36.37
2018-04-14T13:39:01.166Z,36.33
2018-04-14T13:41:28.699Z,32.93
2018-04-14T13:43:57.029Z,29.60
2018-04-14T13:46:24.664Z,30.83
2018-04-14T13:48:52.237Z,28.73
2018-04-14T13:51:19.913Z,28.30
2018-04-14T13:53:47.517Z,27.70
2018-04-14T13:56:15.792Z,30.70
2018-04-14T13:58:44.187Z,31.10
2018-04-14T14:01:11.703Z,30.27
2018-04-14T14:03:39.829Z,33.97
2018-04-14T14:06:07.720Z,35.50
2018-04-14T14:08:36.340Z,34.17
2018-04-14T14:11:03.962Z,35.13
2018-04-14T14:13:31.447Z,36.27
2018-04-14T14:15:58.944Z,37.10
2018-04-14T14:18:27.260Z,33.07
2018-04-14T14:20:55.473Z,34.30
2018-04-14T14:23:24.112Z,33.10
2018-04-14T14:25:51.761Z,34.37
2018-04-14T14:28:19.296Z,33.70
2018-04-14T14:30:47.758Z,33.17
2018-04-14T14:33:15.325Z,33.60
2018-04-14T14:35:44.356Z,32.50
2018-04-14T14:38:11.848Z,34.80
2018-04-14T14:40:39.412Z,35.07
2018-04-14T14:43:06.929Z,32.43
2018-04-14T14:45:34.421Z,33.20
2018-04-14T14:48:02.607Z,32.20
2018-04-14T14:50:30.144Z,32.17
2018-04-14T14:52:57.634Z,31.50
2018-04-14T14:55:25.196Z,29.80
2018-04-14T14:57:52.908Z,32.13
2018-04-14T15:00:20.434Z,29.30
2018-04-14T15:02:48.844Z,28.40
2018-04-14T15:05:16.299Z,31.97
2018-04-14T15:07:43.896Z,33.80
2018-04-14T15:10:11.465Z,33.23
2018-04-14T15:12:39.285Z,32.50
2018-04-14T15:15:06.957Z,32.60
2018-04-14T15:17:37.920Z,34.30
2018-04-14T15:20:06.412Z,33.83
2018-04-14T15:22:35.085Z,33.90
2018-04-14T15:25:02.920Z,31.57
2018-04-14T15:27:30.521Z,31.87
2018-04-14T15:30:00.114Z,32.47
2018-04-14T15:32:27.905Z,31.90
2018-04-14T15:34:56.269Z,31.60
2018-04-14T15:37:24.026Z,33.17
2018-04-14T15:39:52.732Z,32.67
2018-04-14T15:42:20.365Z,32.83
2018-04-14T15:44:49.172Z,32.57
2018-04-14T15:47:17.145Z,30.47
2018-04-14T15:49:45.556Z,33.07
2018-04-14T15:52:13.820Z,32.30
2018-04-14T15:54:42.172Z,29.77
2018-04-14T15:57:10.136Z,31.90
2018-04-14T15:59:37.643Z,32.73
2018-04-14T16:02:05.923Z,35.53
2018-04-14T16:04:34.201Z,33.43
2018-04-14T16:07:02.457Z,32.17
2018-04-14T16:09:30.801Z,33.83
2018-04-14T16:11:59.093Z,35.00
2018-04-14T16:14:26.585Z,36.47
2018-04-14T16:16:54.950Z,34.27
2018-04-14T16:19:23.216Z,37.90
2018-04-14T16:21:50.773Z,39.77
2018-04-14T16:24:18.369Z,44.40
2018-04-14T16:26:45.871Z,44.37
2018-04-14T16:29:13.526Z,46.87
2018-04-14T16:31:41.852Z,47.30
2018-04-14T16:34:10.108Z,42.47
2018-04-14T16:36:37.591Z,49.27
2018-04-14T16:39:05.953Z,48.97
2018-04-14T16:41:33.436Z,48.80
2018-04-14T16:44:00.949Z,46.53
2018-04-14T16:46:28.472Z,46.77
2018-04-14T16:48:55.967Z,48.67
2018-04-14T16:51:23.472Z,43.67
2018-04-14T16:53:50.992Z,44.50
2018-04-14T16:56:18.480Z,49.00
2018-04-14T16:58:46.876Z,61.27
2018-04-14T17:01:14.485Z,48.67
2018-04-14T17:03:41.936Z,49.77
2018-04-14T17:06:10.188Z,48.60
2018-04-14T17:08:37.700Z,46.67
2018-04-14T17:11:05.952Z,47.13
2018-04-14T17:13:33.447Z,45.30
2018-04-14T17:16:01.731Z,48.73
2018-04-14T17:18:29.224Z,45.90
2018-04-14T17:20:56.712Z,45.03
2018-04-14T17:23:24.245Z,47.47
2018-04-14T17:25:51.728Z,48.53
2018-04-14T17:28:19.216Z,47.17
2018-04-14T17:30:47.506Z,48.20
2018-04-14T17:33:15.057Z,49.77
2018-04-14T17:35:42.553Z,53.73
2018-04-14T17:38:10.130Z,54.70
2018-04-14T17:40:37.596Z,52.50
2018-04-14T17:43:05.896Z,49.60
2018-04-14T17:45:34.161Z,54.80
2018-04-14T17:48:01.649Z,56.40
2018-04-14T17:50:29.152Z,55.03
2018-04-14T17:52:56.681Z,52.80
2018-04-14T17:55:24.164Z,59.03
2018-04-14T17:57:51.667Z,44.87
2018-04-14T18:00:19.916Z,47.97
2018-04-14T18:02:47.396Z,51.33
2018-04-14T18:05:15.691Z,52.30
2018-04-14T18:07:43.180Z,57.07
2018-04-14T18:10:10.669Z,54.07
2018-04-14T18:12:38.331Z,56.87
2018-04-14T18:15:06.698Z,59.00
2018-04-14T18:17:34.196Z,58.87
2018-04-14T18:20:01.916Z,59.53
2018-04-14T18:22:29.483Z,61.30
2018-04-14T18:24:57.069Z,55.73
2018-04-14T18:27:24.697Z,51.60
2018-04-14T18:29:52.318Z,50.20
2018-04-14T18:32:19.912Z,50.80
2018-04-14T18:34:48.339Z,54.70
2018-04-14T18:37:15.979Z,51.53
2018-04-14T18:39:43.496Z,54.37
2018-04-14T18:42:11.109Z,57.97
2018-04-14T18:44:39.655Z,53.67
2018-04-14T18:47:07.355Z,54.13
2018-04-14T18:49:35.026Z,47.30
2018-04-14T18:52:02.566Z,49.67
2018-04-14T18:54:30.191Z,48.07
2018-04-14T18:56:57.728Z,49.50
2018-04-14T18:59:26.154Z,49.87
2018-04-14T19:01:53.669Z,46.90
2018-04-14T19:04:22.079Z,49.17
2018-04-14T19:06:49.649Z,48.30
2018-04-14T19:09:17.277Z,50.40
2018-04-14T19:11:44.772Z,50.33
2018-04-14T19:14:12.317Z,49.80
2018-04-14T19:16:39.994Z,48.83
2018-04-14T19:19:07.578Z,49.67
2018-04-14T19:21:36.165Z,50.20
2018-04-14T19:24:03.770Z,52.50
2018-04-14T19:26:31.384Z,53.43
2018-04-14T19:28:59.659Z,53.30
2018-04-14T19:31:27.994Z,61.27
2018-04-14T19:33:55.618Z,62.23
2018-04-14T19:36:23.221Z,56.10
2018-04-14T19:38:50.994Z,56.00
2018-04-14T19:41:18.620Z,55.50
2018-04-14T19:43:46.315Z,56.13
2018-04-14T19:46:14.025Z,60.93
2018-04-14T19:48:41.706Z,56.63
2018-04-14T19:51:09.185Z,54.27
2018-04-14T19:53:36.891Z,65.00
2018-04-14T19:56:04.512Z,75.77
2018-04-14T19:58:32.093Z,61.30
2018-04-14T20:00:59.701Z,65.37
2018-04-14T20:03:27.543Z,61.23
2018-04-14T20:05:55.305Z,60.63
2018-04-14T20:08:22.944Z,66.97
2018-04-14T20:10:50.926Z,69.17
2018-04-14T20:13:18.491Z,64.57
2018-04-14T20:15:46.224Z,71.37
2018-04-14T20:18:13.885Z,61.70
2018-04-14T20:20:41.562Z,74.00
2018-04-14T20:23:09.245Z,68.10
2018-04-14T20:25:37.687Z,70.60
2018-04-14T20:28:05.254Z,70.27
2018-04-14T20:30:33.665Z,72.67
2018-04-14T20:33:01.321Z,69.57
2018-04-14T20:35:29.051Z,67.30
2018-04-14T20:37:56.661Z,73.70
2018-04-14T20:40:25.128Z,70.77
2018-04-14T20:42:52.813Z,70.87
2018-04-14T20:45:20.462Z,73.07
2018-04-14T20:47:48.021Z,67.47
2018-04-14T20:50:15.654Z,74.53
2018-04-14T20:52:43.230Z,77.17
2018-04-14T20:55:10.866Z,79.73
2018-04-14T20:57:38.425Z,80.10
2018-04-14T21:00:06.199Z,80.37
2018-04-14T21:02:33.864Z,73.47
2018-04-14T21:05:01.443Z,71.80
2018-04-14T21:07:29.896Z,74.50
2018-04-14T21:09:57.514Z,75.87
2018-04-14T21:12:25.191Z,72.10
2018-04-14T21:14:52.706Z,74.60
2018-04-14T21:17:20.367Z,74.47
2018-04-14T21:19:48.125Z,61.87
2018-04-14T21:22:15.748Z,57.80
2018-04-14T21:24:43.492Z,53.30
2018-04-14T21:27:11.087Z,59.97
2018-04-14T21:29:38.646Z,57.50
2018-04-14T21:32:06.671Z,60.73
2018-04-14T21:34:34.385Z,57.60
2018-04-14T21:37:01.974Z,55.90
2018-04-14T21:39:29.585Z,51.53
2018-04-14T21:41:57.175Z,50.90
2018-04-14T21:44:25.477Z,36.03
2018-04-14T21:46:53.797Z,43.83
2018-04-14T21:49:21.347Z,45.43
2018-04-14T21:51:48.997Z,46.90
2018-04-14T21:54:16.681Z,45.22
2018-04-14T21:56:44.246Z,32.23
2018-04-14T21:59:11.812Z,36.70
2018-04-14T22:01:39.476Z,38.67
2018-04-14T22:04:07.636Z,30.27
2018-04-14T22:06:35.209Z,31.30
2018-04-14T22:09:02.872Z,32.87
2018-04-14T22:11:30.506Z,33.70
2018-04-14T22:13:58.154Z,30.27
2018-04-14T22:16:25.829Z,32.07
2018-04-14T22:18:53.361Z,34.00
2018-04-14T22:21:20.917Z,34.57
2018-04-14T22:23:49.285Z,34.27
2018-04-14T22:26:17.638Z,30.90
2018-04-14T22:28:45.132Z,31.97
2018-04-14T22:31:12.852Z,30.03
2018-04-14T22:33:40.483Z,32.73
2018-04-14T22:36:08.179Z,30.33
2018-04-14T22:38:35.846Z,30.20
2018-04-14T22:41:03.437Z,31.37
2018-04-14T22:43:31.042Z,32.80
2018-04-14T22:45:58.582Z,32.40
2018-04-14T22:48:26.206Z,29.40
2018-04-14T22:50:53.732Z,27.47
2018-04-14T22:53:21.303Z,31.70
2018-04-14T22:55:48.850Z,37.40
2018-04-14T22:58:16.490Z,28.50
2018-04-14T23:00:44.049Z,39.73
2018-04-14T23:03:11.795Z,34.90
2018-04-14T23:05:39.363Z,33.23
2018-04-14T23:08:07.798Z,36.00
2018-04-14T23:10:35.432Z,32.23
2018-04-14T23:13:03.125Z,33.40
2018-04-14T23:15:30.705Z,33.10
2018-04-14T23:17:58.484Z,35.47
2018-04-14T23:20:26.126Z,33.47
2018-04-14T23:22:54.037Z,34.17
2018-04-14T23:25:21.720Z,60.80
2018-04-14T23:27:49.328Z,46.03
2018-04-14T23:30:17.695Z,35.67
2018-04-14T23:32:45.253Z,30.80
2018-04-14T23:35:12.764Z,31.40
2018-04-14T23:37:40.350Z,32.00
2018-04-14T23:40:07.895Z,27.73
2018-04-14T23:42:35.574Z,25.60
2018-04-14T23:45:03.121Z,30.80
2018-04-14T23:47:30.807Z,29.37
2018-04-14T23:49:58.468Z,31.80
2018-04-14T23:52:26.352Z,29.70
2018-04-14T23:54:54.697Z,30.83
2018-04-14T23:57:22.398Z,31.73
2018-04-14T23:59:53.997Z,33.20
